Terminal Aerodrome Forecast
Issued by NWS

Home | Current Version | Previous Version | Text Only | Print | Product List | Glossary On
Versions: 1 2 3 4 5 6 7 8 9 10 11 12 13 14 15 16
000
FTAK31 PAFA 300540
TAFATA
TAF
PATA 300540Z 3006/0106 VRB04KT P6SM -SHRA BKN060 OVC100
     FM301200 VRB03KT P6SM SCT060 BKN100
     FM302100 10010KT P6SM SCT060 BKN200=

USA.gov is the U.S. government's official web portal to all federal, state and local government web resources and services.